Eureka, SD (57437)

10:10 PM CDT on August 29, 2014 (GMT -0500)
Eureka, South Dakota | Change Station
CLOSE
Current Station
Personal Weather Station
Location: Eureka, SD
Elevation: 1871 ft
Nearby Weather Stations

Elev 1871 ft 45.77 °N, 99.62 °W | Updated 1 second ago

Partly Cloudy
Partly Cloudy
60.1 °F
Feels Like 60.1 °F
N
3.0
Wind Variable Wind from North
Gusts 6.0 mph

Today
High -- | Low -- °F
--% Chance of Precip.
Yesterday
High -- | Low -- °F
Precip. -- in
6:55 AM 8:22 PM
Waxing Crescent, 18% visible
Pressure 29.97 in
Visibility 10.0 miles
Clouds Clear
Dew Point 56 °F
Humidity 87%
Rainfall 0.00 in
Snow Depth Not available.
UV 0 out of 12
Pollen 9.30 out of 12
Air Quality Not available.
Flu Activity Not available.
METAR K7L2 300255Z AUTO 01003KT 10SM CLR 14/14 A2997 RMK AO2

More Conditions Fewer Conditions

Pressure 29.97 in
Visibility 10.0 miles
Clouds Clear
Dew Point 56 °F
Humidity 87%
Rainfall 0.00 in
Snow Depth Not available.
UV 0 out of 12
Pollen 9.30 out of 12
Air Quality Not available.
Flu Activity Not available.
METAR K7L2 300255Z AUTO 01003KT 10SM CLR 14/14 A2997 RMK AO2

More Conditions Fewer Conditions

10-Day Weather Forecast

Almanac

Astronomy

Aug. 29, 2014 Rise Set
Actual Time 6:55 AM CDT 8:22 PM CDT
Civil Twilight 6:24 AM CDT 8:52 PM CDT
Nautical Twilight 5:47 AM CDT 9:30 PM CDT
Astronomical Twilight 5:06 AM CDT 10:10 PM CDT
Moon 11:01 AM CDT (8/29) 10:05 PM CDT (8/29)
Length of Visible Light 14h 28m
Length of Day
13h 26m
Tomorrow will be 3m 5s shorter.
Waxing Crescent, 18% of the Moon is Illuminated
Today
Waxing Crescent
Sep 2
First Quarter
Sep 8
Full
Sep 15
Last Quarter
Sep 24
New

Today's Extremes

State Highs State Lows

Community

WunderPhotos

Upload Photos

1,748,427 photos uploaded!

Nearby

Snow Depth

Station Depth Elevation
Blind Park 0 in 6890 ft

Earthquake Activity

City Distance Mag. Time & Date
No recent earthquake activity has been reported nearby.
Minimum magnitude displayed is 2.5.

Coastal Water Temperatures

Place Temperature
No Stations Reporting

Nearby Weather Stations